Airfield :
LOGIN :

Register | Disclaimer

   EN    FR    IT 

 










Legend :    VFR   Marginal VFR   IFR   Intensive IFR   Very Intensive IFR
Visi :
Ceiling :
>= 8 km
>= 3000ft
5 to 8 km
1000 to 3000 ft
1500m to 5 km
500 to 1000 ft
800 to 1500m
200 to 500 ft
< 800m
< 200 ft
Symbols :   Thunderstorms  Fog  Heavy snow  Heavy precipitations  Wind > 20 kt
SIGMETs :     Misc.  Thunderstorms  Icing  Turbulence  Mountain Waves  Volcanic Ashes






- Airport Elevation : 3006 ft
- IATA code : LEN


LELN - Leon

CURRENT METAR :
  • 280830Z 26006KT CAVOK 02/01 Q1023

EXPIRED METARs :
  • 280800Z 24005KT CAVOK 01/01 Q1023
  • 280730Z 26006KT CAVOK 01/00 Q1022
  • 280700Z 27007KT CAVOK 02/00 Q1022
  • 280630Z AUTO 26008KT 230V310 9000 NCD 02/00 Q1022
  • 280600Z AUTO 27005KT 9000 NCD 02/00 Q1022
  • 280530Z AUTO 27005KT 9000 NCD 02/00 Q1022

TAF TAF LELN
Valid from the 28 at 09:00 until the 29 at 09:00 UTC


280800Z 2809/2909 28012KT CAVOK TX12/2815Z TN01/2906Z
BECMG 2817/2819 VRB05KT



MET'MAP, your aeronautical weather chart ! - Copyright ORBIFLY December 2007 - Disclaimer

ORBIFLY MET'MAP TEAM :

Programming & Development : Alexandra Zaïnal
Original concept : Baudouin d'Aumeries
Technical & hardware support : Manuel Goepfert
Assistance : Marc-Olivier Méhu




SOURCES & CREDITS :

   NOAA